TimePST,TemperatureF,Dew PointF,Humidity,Sea Level PressureIn,VisibilityMPH,Wind Direction,Wind SpeedMPH,Gust SpeedMPH,PrecipitationIn,Events,Conditions,WindDirDegrees,DateUTC
12:15 AM,37.4,35.6,93,30.07,10.0,South,6.9,-,N/A,,Overcast,180,2014-03-05 08:15:00
12:35 AM,37.4,35.6,93,30.06,10.0,SSE,8.1,-,N/A,,Overcast,150,2014-03-05 08:35:00
12:55 AM,37.4,33.8,87,30.06,10.0,SSE,6.9,-,N/A,,Overcast,150,2014-03-05 08:55:00
1:15 AM,37.4,35.6,93,30.07,10.0,ESE,8.1,-,N/A,,Overcast,120,2014-03-05 09:15:00
1:35 AM,37.4,33.8,87,30.06,10.0,SSW,4.6,-,N/A,,Mostly Cloudy,200,2014-03-05 09:35:00
1:55 AM,35.6,33.8,93,30.06,10.0,SSE,3.5,-,N/A,,Partly Cloudy,150,2014-03-05 09:55:00
2:15 AM,35.6,33.8,93,30.05,10.0,SE,4.6,-,N/A,,Clear,140,2014-03-05 10:15:00
2:35 AM,37.4,35.6,93,30.05,10.0,SSE,9.2,-,N/A,,Mostly Cloudy,150,2014-03-05 10:35:00
2:55 AM,37.4,35.6,93,30.05,10.0,South,10.4,-,N/A,,Overcast,170,2014-03-05 10:55:00
3:15 AM,39.2,35.6,87,30.04,10.0,SSE,11.5,-,N/A,,Overcast,160,2014-03-05 11:15:00
3:35 AM,39.2,35.6,87,30.04,10.0,SSE,11.5,-,N/A,,Overcast,160,2014-03-05 11:35:00
3:55 AM,39.2,35.6,87,30.02,10.0,SSE,12.7,-,N/A,,Overcast,150,2014-03-05 11:55:00
4:15 AM,39.2,35.6,87,30.00,10.0,SSE,11.5,-,N/A,,Mostly Cloudy,160,2014-03-05 12:15:00
4:35 AM,41.0,35.6,81,29.99,10.0,South,10.4,-,N/A,,Partly Cloudy,170,2014-03-05 12:35:00
4:55 AM,41.0,37.4,87,30.00,10.0,South,15.0,-,N/A,,Mostly Cloudy,190,2014-03-05 12:55:00
5:15 AM,41.0,37.4,87,30.01,10.0,South,15.0,-,N/A,,Overcast,180,2014-03-05 13:15:00
5:35 AM,41.0,37.4,87,30.01,10.0,South,12.7,-,N/A,,Overcast,170,2014-03-05 13:35:00
5:55 AM,42.8,37.4,81,30.02,10.0,South,13.8,-,N/A,,Overcast,180,2014-03-05 13:55:00
6:15 AM,42.8,35.6,76,30.03,10.0,South,17.3,24.2,N/A,,Overcast,180,2014-03-05 14:15:00
6:35 AM,42.8,37.4,81,30.03,10.0,South,11.5,-,N/A,,Overcast,170,2014-03-05 14:35:00
6:55 AM,42.8,37.4,81,30.02,10.0,South,12.7,18.4,N/A,,Overcast,180,2014-03-05 14:55:00
7:15 AM,42.8,37.4,81,30.02,10.0,South,15.0,-,N/A,,Overcast,190,2014-03-05 15:15:00
7:35 AM,42.8,37.4,81,30.02,10.0,South,12.7,18.4,N/A,,Overcast,180,2014-03-05 15:35:00
7:55 AM,42.8,37.4,81,30.02,10.0,South,15.0,-,N/A,,Overcast,180,2014-03-05 15:55:00
8:15 AM,42.8,37.4,81,30.03,10.0,SSE,15.0,21.9,N/A,,Overcast,160,2014-03-05 16:15:00
8:35 AM,42.8,37.4,81,30.04,10.0,SSE,11.5,17.3,N/A,,Overcast,160,2014-03-05 16:35:00
8:55 AM,44.6,37.4,76,30.04,10.0,SSE,12.7,18.4,N/A,,Overcast,150,2014-03-05 16:55:00
9:15 AM,44.6,37.4,76,30.04,10.0,SSE,13.8,20.7,N/A,,Overcast,160,2014-03-05 17:15:00
9:35 AM,44.6,37.4,76,30.05,10.0,SSE,10.4,-,N/A,,Overcast,160,2014-03-05 17:35:00
9:55 AM,44.6,37.4,76,30.04,10.0,South,13.8,20.7,N/A,,Overcast,170,2014-03-05 17:55:00
10:15 AM,44.6,37.4,76,30.03,10.0,South,13.8,17.3,N/A,,Overcast,170,2014-03-05 18:15:00
10:35 AM,46.4,39.2,76,30.03,10.0,South,17.3,24.2,N/A,,Overcast,170,2014-03-05 18:35:00
10:55 AM,46.4,39.2,76,30.04,10.0,South,18.4,25.3,N/A,,Overcast,190,2014-03-05 18:55:00
11:15 AM,48.2,39.2,71,30.03,10.0,South,24.2,28.8,N/A,,Overcast,190,2014-03-05 19:15:00
11:35 AM,46.4,39.2,76,30.03,10.0,South,19.6,23.0,N/A,,Overcast,190,2014-03-05 19:35:00
11:55 AM,46.4,41.0,81,30.03,9.0,South,19.6,25.3,N/A,,Overcast,180,2014-03-05 19:55:00
12:15 PM,50.0,42.8,76,30.01,10.0,South,19.6,26.5,N/A,,Overcast,190,2014-03-05 20:15:00
12:35 PM,48.2,41.0,76,30.00,10.0,South,19.6,26.5,N/A,,Overcast,180,2014-03-05 20:35:00
12:55 PM,48.2,42.8,82,29.99,10.0,South,16.1,20.7,N/A,,Overcast,190,2014-03-05 20:55:00
1:15 PM,51.8,42.8,71,29.98,10.0,SSW,17.3,23.0,N/A,,Overcast,200,2014-03-05 21:15:00
1:35 PM,51.8,39.2,62,29.97,10.0,SSW,18.4,27.6,N/A,,Overcast,210,2014-03-05 21:35:00
1:55 PM,51.8,39.2,62,29.95,10.0,South,17.3,23.0,N/A,,Overcast,190,2014-03-05 21:55:00
2:15 PM,51.8,41.0,67,29.94,10.0,South,18.4,21.9,N/A,,Overcast,190,2014-03-05 22:15:00
2:35 PM,51.8,41.0,67,29.94,10.0,South,18.4,21.9,N/A,,Overcast,190,2014-03-05 22:35:00
2:55 PM,51.8,41.0,67,29.92,10.0,South,16.1,20.7,N/A,,Overcast,180,2014-03-05 22:55:00
3:15 PM,51.8,42.8,71,29.92,10.0,South,19.6,25.3,N/A,,Overcast,180,2014-03-05 23:15:00
3:35 PM,50.0,42.8,76,29.92,10.0,South,20.7,25.3,N/A,,Overcast,180,2014-03-05 23:35:00
3:55 PM,48.2,44.6,87,29.91,10.0,South,15.0,-,N/A,,Overcast,180,2014-03-05 23:55:00
4:15 PM,48.2,44.6,87,29.90,10.0,South,10.4,-,N/A,,Overcast,180,2014-03-06 00:15:00
4:35 PM,48.2,44.6,87,29.88,10.0,South,9.2,-,N/A,,Overcast,180,2014-03-06 00:35:00
4:55 PM,48.2,42.8,82,29.88,10.0,South,17.3,-,N/A,,Overcast,180,2014-03-06 00:55:00
5:15 PM,48.2,42.8,82,29.88,10.0,South,15.0,-,N/A,,Overcast,180,2014-03-06 01:15:00
5:35 PM,48.2,42.8,82,29.88,10.0,South,12.7,19.6,N/A,,Overcast,180,2014-03-06 01:35:00
5:55 PM,48.2,42.8,82,29.88,10.0,South,11.5,-,N/A,,Overcast,180,2014-03-06 01:55:00
6:15 PM,48.2,42.8,82,29.88,10.0,South,10.4,-,N/A,,Overcast,180,2014-03-06 02:15:00
6:35 PM,46.4,42.8,87,29.87,10.0,South,12.7,-,N/A,,Overcast,170,2014-03-06 02:35:00
6:55 PM,46.4,44.6,93,29.87,10.0,South,13.8,-,N/A,,Overcast,170,2014-03-06 02:55:00
7:15 PM,46.4,44.6,93,29.85,10.0,SSE,15.0,-,N/A,,Overcast,160,2014-03-06 03:15:00
7:35 PM,46.4,42.8,87,29.84,10.0,SSE,19.6,24.2,N/A,,Overcast,160,2014-03-06 03:35:00
7:55 PM,46.4,42.8,87,29.84,10.0,SSE,25.3,32.2,N/A,,Mostly Cloudy,160,2014-03-06 03:55:00
8:15 PM,46.4,42.8,87,29.82,10.0,South,23.0,32.2,N/A,,Overcast,170,2014-03-06 04:15:00
9:35 PM,-9999,-9999,N/A,29.82,10.0,South,21.9,29.9,N/A,,Unknown,180,2014-03-06 05:35:00
10:35 PM,-9999,-9999,N/A,29.84,10.0,South,23.0,32.2,N/A,,Unknown,180,2014-03-06 06:35:00
10:55 PM,-9999,-9999,N/A,29.84,10.0,South,25.3,33.4,N/A,,Overcast,170,2014-03-06 06:55:00
11:15 PM,-9999,-9999,N/A,29.83,10.0,South,23.0,31.1,N/A,,Overcast,170,2014-03-06 07:15:00
11:35 PM,-9999,-9999,N/A,29.84,10.0,South,21.9,34.5,N/A,,Overcast,170,2014-03-06 07:35:00
11:55 PM,-9999,-9999,N/A,29.83,10.0,South,20.7,29.9,N/A,,Overcast,180,2014-03-06 07:55:00